Observation data for Olton on 03/23/2019      Previous  Date  Next       Current Mesonet Observations  Soil Data  Daily Summary Page  Observations in Plain Language
KONS 230500Z 19013KT 12/10 A2996 RMK A01 T01220095  RH  085%=      5-min Rain = 0
KONS 230505Z 19013KT 12/09 A2996 RMK A01 T01210094  RH  085%=      5-min Rain = 0
KONS 230510Z 19013KT 12/09 A2996 RMK A01 T01200094  RH  086%=      5-min Rain = 0
KONS 230515Z 19012KT 12/09 A2996 RMK A01 T01180093  RH  086%=      5-min Rain = 0
KONS 230520Z 19012KT 12/09 A2996 RMK A01 T01160093  RH  087%=      5-min Rain = 0
KONS 230525Z 20011KT 12/09 A2996 RMK A01 T01150092  RH  088%=      5-min Rain = 0
KONS 230530Z 20010KT 11/09 A2997 RMK A01 T01130092  RH  088%=      5-min Rain = 0
KONS 230535Z 20010KT 11/09 A2997 RMK A01 T01110091  RH  089%=      5-min Rain = 0
KONS 230540Z 20010KT 11/09 A2996 RMK A01 T01100090  RH  089%=      5-min Rain = 0
KONS 230545Z 21009KT 11/09 A2997 RMK A01 T01070089  RH  090%=      5-min Rain = 0
KONS 230550Z 21008KT 11/09 A2997 RMK A01 T01050087  RH  090%=      5-min Rain = 0
KONS 230555Z 21008KT 10/09 A2997 RMK A01 T01030087  RH  091%=      5-min Rain = 0
KONS 230600Z 22008KT 10/09 A2997 RMK A01 T01030087  RH  091%=      5-min Rain = 0
KONS 230605Z 20008KT 10/09 A2997 RMK A01 T01030087  RH  091%=      5-min Rain = 0
KONS 230610Z 20008KT 10/09 A2996 RMK A01 T01020087  RH  091%=      5-min Rain = 0
KONS 230615Z 21007KT 10/09 A2996 RMK A01 T01010086  RH  092%=      5-min Rain = 0
KONS 230620Z 21008KT 10/09 A2996 RMK A01 T01010086  RH  092%=      5-min Rain = 0
KONS 230625Z 21009KT 10/09 A2996 RMK A01 T01040090  RH  093%=      5-min Rain = 0
KONS 230630Z 21009KT 11/09 A2996 RMK A01 T01050091  RH  092%=      5-min Rain = 0
KONS 230635Z 20009KT 11/09 A2996 RMK A01 T01050090  RH  092%=      5-min Rain = 0
KONS 230640Z 20010KT 11/09 A2996 RMK A01 T01050090  RH  092%=      5-min Rain = 0
KONS 230645Z 20010KT 10/09 A2996 RMK A01 T01040090  RH  092%=      5-min Rain = 0
KONS 230650Z 20010KT 10/09 A2996 RMK A01 T01030088  RH  092%=      5-min Rain = 0
KONS 230655Z 20010KT 10/09 A2996 RMK A01 T01030088  RH  092%=      5-min Rain = 0
KONS 230700Z 20010KT 10/09 A2996 RMK A01 T01020088  RH  093%=      5-min Rain = 0
KONS 230705Z 21009KT 10/09 A2996 RMK A01 T01010088  RH  093%=      5-min Rain = 0
KONS 230710Z 21009KT 10/09 A2996 RMK A01 T01020088  RH  093%=      5-min Rain = 0
KONS 230715Z 21009KT 10/09 A2996 RMK A01 T01020089  RH  093%=      5-min Rain = 0
KONS 230720Z 22010KT 10/09 A2996 RMK A01 T01010088  RH  093%=      5-min Rain = 0
KONS 230725Z 22009KT 10/09 A2996 RMK A01 T00990085  RH  093%=      5-min Rain = 0
KONS 230730Z 22008KT 10/08 A2996 RMK A01 T00960082  RH  093%=      5-min Rain = 0
KONS 230735Z 22009KT 09/08 A2996 RMK A01 T00930080  RH  093%=      5-min Rain = 0
KONS 230740Z 22009KT 09/08 A2996 RMK A01 T00930080  RH  094%=      5-min Rain = 0
KONS 230745Z 22009KT 09/08 A2996 RMK A01 T00920080  RH  094%=      5-min Rain = 0
KONS 230750Z 22009KT 09/08 A2996 RMK A01 T00890077  RH  093%=      5-min Rain = 0
KONS 230755Z 22009KT 09/07 A2996 RMK A01 T00860074  RH  093%=      5-min Rain = 0
KONS 230800Z 22009KT 08/07 A2997 RMK A01 T00840071  RH  093%=      5-min Rain = 0
KONS 230805Z 23008KT 08/07 A2997 RMK A01 T00810067  RH  092%=      5-min Rain = 0
KONS 230810Z 24007KT 08/06 A2997 RMK A01 T00770062  RH  092%=      5-min Rain = 0
KONS 230815Z 24008KT 07/06 A2997 RMK A01 T00720057  RH  091%=      5-min Rain = 0
KONS 230820Z 24007KT 07/05 A2997 RMK A01 T00670052  RH  091%=      5-min Rain = 0
KONS 230825Z 24005KT 06/05 A2997 RMK A01 T00630048  RH  091%=      5-min Rain = 0
KONS 230830Z 24006KT 06/04 A2997 RMK A01 T00580042  RH  091%=      5-min Rain = 0
KONS 230835Z 27006KT 05/04 A2997 RMK A01 T00520038  RH  092%=      5-min Rain = 0
KONS 230840Z 27006KT 05/04 A2997 RMK A01 T00510038  RH  092%=      5-min Rain = 0
KONS 230845Z 26007KT 05/04 A2997 RMK A01 T00480035  RH  092%=      5-min Rain = 0
KONS 230850Z 26006KT 05/03 A2997 RMK A01 T00460033  RH  092%=      5-min Rain = 0
KONS 230855Z 28004KT 04/03 A2997 RMK A01 T00440032  RH  093%=      5-min Rain = 0
KONS 230900Z 26006KT 04/03 A2996 RMK A01 T00440031  RH  093%=      5-min Rain = 0
KONS 230905Z 26007KT 04/03 A2996 RMK A01 T00420030  RH  093%=      5-min Rain = 0
KONS 230910Z 26008KT 04/03 A2996 RMK A01 T00430031  RH  093%=      5-min Rain = 0
KONS 230915Z 26009KT 04/03 A2996 RMK A01 T00430031  RH  093%=      5-min Rain = 0
KONS 230920Z 26009KT 04/03 A2996 RMK A01 T00440032  RH  093%=      5-min Rain = 0
KONS 230925Z 26009KT 05/03 A2996 RMK A01 T00450031  RH  092%=      5-min Rain = 0
KONS 230930Z 26010KT 05/03 A2996 RMK A01 T00450031  RH  092%=      5-min Rain = 0
KONS 230935Z 26010KT 05/03 A2996 RMK A01 T00460032  RH  092%=      5-min Rain = 0
KONS 230940Z 26010KT 05/03 A2995 RMK A01 T00470032  RH  091%=      5-min Rain = 0
KONS 230945Z 26010KT 05/03 A2996 RMK A01 T00490033  RH  091%=      5-min Rain = 0
KONS 230950Z 26009KT 05/03 A2995 RMK A01 T00490031  RH  090%=      5-min Rain = 0
KONS 230955Z 26009KT 05/03 A2995 RMK A01 T00450027  RH  089%=      5-min Rain = 0
KONS 231000Z 25009KT 04/02 A2995 RMK A01 T00380020  RH  089%=      5-min Rain = 0
KONS 231005Z 25009KT 04/02 A2996 RMK A01 T00360021  RH  091%=      5-min Rain = 0
KONS 231010Z 26009KT 04/02 A2996 RMK A01 T00380024  RH  092%=      5-min Rain = 0
KONS 231015Z 26009KT 04/03 A2996 RMK A01 T00400026  RH  092%=      5-min Rain = 0
KONS 231020Z 26008KT 04/03 A2996 RMK A01 T00400025  RH  091%=      5-min Rain = 0
KONS 231025Z 26008KT 04/03 A2996 RMK A01 T00420028  RH  091%=      5-min Rain = 0
KONS 231030Z 27007KT 04/03 A2996 RMK A01 T00430025  RH  090%=      5-min Rain = 0
KONS 231035Z 26007KT 04/02 A2996 RMK A01 T00400023  RH  089%=      5-min Rain = 0
KONS 231040Z 26007KT 04/02 A2996 RMK A01 T00400022  RH  089%=      5-min Rain = 0
KONS 231045Z 26007KT 04/02 A2996 RMK A01 T00410022  RH  088%=      5-min Rain = 0
KONS 231050Z 26008KT 04/02 A2996 RMK A01 T00380019  RH  088%=      5-min Rain = 0
KONS 231055Z 27007KT 04/02 A2997 RMK A01 T00370018  RH  088%=      5-min Rain = 0
KONS 231100Z 27008KT 03/01 A2997 RMK A01 T00340014  RH  088%=      5-min Rain = 0
KONS 231105Z 27008KT 03/01 A2997 RMK A01 T00300012  RH  089%=      5-min Rain = 0
KONS 231110Z 27008KT 03/01 A2997 RMK A01 T00310014  RH  089%=      5-min Rain = 0
KONS 231115Z 26008KT 03/02 A2997 RMK A01 T00320015  RH  089%=      5-min Rain = 0
KONS 231120Z 27008KT 03/01 A2997 RMK A01 T00310012  RH  089%=      5-min Rain = 0
KONS 231125Z 27007KT 03/01 A2997 RMK A01 T00280010  RH  089%=      5-min Rain = 0
KONS 231130Z 27008KT 02/01 A2998 RMK A01 T00240007  RH  089%=      5-min Rain = 0
KONS 231135Z 27008KT 02/01 A2998 RMK A01 T00230007  RH  090%=      5-min Rain = 0
KONS 231140Z 27008KT 02/01 A2998 RMK A01 T00220006  RH  090%=      5-min Rain = 0
KONS 231145Z 26007KT 02/01 A2998 RMK A01 T00240008  RH  091%=      5-min Rain = 0
KONS 231150Z 26008KT 02/01 A2998 RMK A01 T00230006  RH  089%=      5-min Rain = 0
KONS 231155Z 26007KT 02/00 A2998 RMK A01 T00180000  RH  089%=      5-min Rain = 0
KONS 231200Z 25008KT 01/M01 A2998 RMK A01 T00111005  RH  090%=      5-min Rain = 0
KONS 231205Z 25009KT 01/M01 A2999 RMK A01 T00091005  RH  091%=      5-min Rain = 0
KONS 231210Z 25008KT 01/M01 A2999 RMK A01 T00091005  RH  092%=      5-min Rain = 0
KONS 231215Z 25009KT 01/M01 A2999 RMK A01 T00081006  RH  092%=      5-min Rain = 0
KONS 231220Z 25009KT 01/M01 A2999 RMK A01 T00081006  RH  092%=      5-min Rain = 0
KONS 231225Z 25010KT 01/M01 A2999 RMK A01 T00091005  RH  091%=      5-min Rain = 0
KONS 231230Z 26010KT 01/M01 A2999 RMK A01 T00101006  RH  090%=      5-min Rain = 0
KONS 231235Z 26010KT 01/M01 A2999 RMK A01 T00131005  RH  089%=      5-min Rain = 0
KONS 231240Z 26010KT 02/M01 A2999 RMK A01 T00181006  RH  085%=      5-min Rain = 0
KONS 231245Z 25010KT 02/M01 A30 RMK A01 T00191009  RH  083%=      5-min Rain = 0
KONS 231250Z 25010KT 02/M01 A30 RMK A01 T00171011  RH  082%=      5-min Rain = 0
KONS 231255Z 24011KT 02/M01 A30 RMK A01 T00161012  RH  083%=      5-min Rain = 0
KONS 231300Z 24010KT 02/M01 A30 RMK A01 T00171012  RH  082%=      5-min Rain = 0
KONS 231305Z 25010KT 02/M01 A30 RMK A01 T00181011  RH  082%=      5-min Rain = 0
KONS 231310Z 25010KT 02/M01 A30 RMK A01 T00181010  RH  082%=      5-min Rain = 0
KONS 231315Z 25010KT 02/M01 A30 RMK A01 T00201009  RH  082%=      5-min Rain = 0
KONS 231320Z 25010KT 02/M01 A30 RMK A01 T00221007  RH  082%=      5-min Rain = 0
KONS 231325Z 25009KT 02/M01 A3001 RMK A01 T00241005  RH  082%=      5-min Rain = 0
KONS 231330Z 24009KT 03/M00 A3001 RMK A01 T00281003  RH  081%=      5-min Rain = 0
KONS 231335Z 24008KT 03/00 A3001 RMK A01 T00320001  RH  081%=      5-min Rain = 0
KONS 231340Z 24008KT 04/01 A3001 RMK A01 T00360005  RH  082%=      5-min Rain = 0
KONS 231345Z 24009KT 04/01 A3001 RMK A01 T00410008  RH  080%=      5-min Rain = 0
KONS 231350Z 24009KT 05/01 A3002 RMK A01 T00470009  RH  077%=      5-min Rain = 0
KONS 231355Z 25009KT 05/01 A3002 RMK A01 T00510011  RH  076%=      5-min Rain = 0
KONS 231400Z 25009KT 06/01 A3002 RMK A01 T00550013  RH  075%=      5-min Rain = 0
KONS 231405Z 25009KT 06/02 A3002 RMK A01 T00590015  RH  074%=      5-min Rain = 0
KONS 231410Z 25008KT 06/02 A3002 RMK A01 T00640016  RH  072%=      5-min Rain = 0
KONS 231415Z 24009KT 07/02 A3002 RMK A01 T00690016  RH  070%=      5-min Rain = 0
KONS 231420Z 24009KT 07/02 A3003 RMK A01 T00730017  RH  068%=      5-min Rain = 0
KONS 231425Z 25010KT 08/01 A3003 RMK A01 T00760014  RH  065%=      5-min Rain = 0
KONS 231430Z 25009KT 08/01 A3003 RMK A01 T00800013  RH  063%=      5-min Rain = 0
KONS 231435Z 25010KT 09/01 A3003 RMK A01 T00860014  RH  061%=      5-min Rain = 0
KONS 231440Z 26010KT 09/01 A3003 RMK A01 T00900013  RH  059%=      5-min Rain = 0
KONS 231445Z 26011KT 10/01 A3003 RMK A01 T00960012  RH  057%=      5-min Rain = 0
KONS 231450Z 26011KT 10/01 A3003 RMK A01 T01020010  RH  053%=      5-min Rain = 0
KONS 231455Z 26012KT 11/01 A3003 RMK A01 T01070007  RH  051%=      5-min Rain = 0
KONS 231500Z 26012KT 11/00 A3003 RMK A01 T01110004  RH  048%=      5-min Rain = 0
KONS 231505Z 26012KT 12/M00 A3003 RMK A01 T01151002  RH  045%=      5-min Rain = 0
KONS 231510Z 26013KT 12/M01 A3003 RMK A01 T01191005  RH  043%=      5-min Rain = 0
KONS 231515Z 27014G19KT 12/M01 A3003 RMK A01 T01221007  RH  041%=      5-min Rain = 0
KONS 231520Z 27014KT 12/M01 A3003 RMK A01 T01231012  RH  039%=      5-min Rain = 0
KONS 231525Z 27014KT 13/M01 A3003 RMK A01 T01261011  RH  039%=      5-min Rain = 0
KONS 231530Z 27014KT 13/M01 A3002 RMK A01 T01271009  RH  039%=      5-min Rain = 0
KONS 231535Z 28015KT 13/M01 A3002 RMK A01 T01291009  RH  039%=      5-min Rain = 0
KONS 231540Z 28015G22KT 13/M02 A3002 RMK A01 T01331015  RH  036%=      5-min Rain = 0
KONS 231545Z 28014KT 14/M02 A3003 RMK A01 T01361017  RH  035%=      5-min Rain = 0
KONS 231550Z 28018KT 14/M02 A3002 RMK A01 T01361022  RH  034%=      5-min Rain = 0
KONS 231555Z 28017KT 14/M02 A3002 RMK A01 T01361022  RH  034%=      5-min Rain = 0
KONS 231600Z 28016G21KT 14/M02 A3002 RMK A01 T01391021  RH  033%=      5-min Rain = 0
KONS 231605Z 28016KT 14/M02 A3002 RMK A01 T01391023  RH  033%=      5-min Rain = 0
KONS 231610Z 28015KT 14/M02 A3002 RMK A01 T01421023  RH  032%=      5-min Rain = 0
KONS 231615Z 28014KT 14/M02 A3002 RMK A01 T01441021  RH  032%=      5-min Rain = 0
KONS 231620Z 29014G19KT 15/M02 A3003 RMK A01 T01481018  RH  032%=      5-min Rain = 0
KONS 231625Z 28016KT 15/M02 A3003 RMK A01 T01461023  RH  032%=      5-min Rain = 0
KONS 231630Z 29015KT 15/M02 A3002 RMK A01 T01471019  RH  032%=      5-min Rain = 0
KONS 231635Z 29015G21KT 15/M02 A3002 RMK A01 T01501018  RH  032%=      5-min Rain = 0
KONS 231640Z 30013KT 15/M02 A3002 RMK A01 T01511019  RH  031%=      5-min Rain = 0
KONS 231645Z 29014KT 15/M03 A3002 RMK A01 T01531025  RH  030%=      5-min Rain = 0
KONS 231650Z 29014KT 15/M03 A3002 RMK A01 T01531033  RH  028%=      5-min Rain = 0
KONS 231655Z 29012G17KT 15/M03 A3002 RMK A01 T01531028  RH  029%=      5-min Rain = 0
KONS 231700Z 29013G18KT 16/M03 A3002 RMK A01 T01551030  RH  028%=      5-min Rain = 0
KONS 231705Z 30012KT 16/M03 A3002 RMK A01 T01561028  RH  029%=      5-min Rain = 0
KONS 231710Z 31014KT 16/M03 A3002 RMK A01 T01551025  RH  029%=      5-min Rain = 0
KONS 231715Z 30014KT 16/M03 A3001 RMK A01 T01581029  RH  028%=      5-min Rain = 0
KONS 231720Z 30011KT 16/M03 A3001 RMK A01 T01581031  RH  028%=      5-min Rain = 0
KONS 231725Z 30012G17KT 16/M03 A3001 RMK A01 T01601026  RH  028%=      5-min Rain = 0
KONS 231730Z 27011G16KT 16/M04 A3001 RMK A01 T01631036  RH  026%=      5-min Rain = 0
KONS 231735Z 27010G15KT 17/M03 A3001 RMK A01 T01681029  RH  026%=      5-min Rain = 0
KONS 231740Z 25010KT 17/M03 A3001 RMK A01 T01671027  RH  027%=      5-min Rain = 0
KONS 231745Z 27011KT 17/M03 A30 RMK A01 T01701033  RH  025%=      5-min Rain = 0
KONS 231750Z 25012KT 17/M03 A30 RMK A01 T01731034  RH  024%=      5-min Rain = 0
KONS 231755Z 25011KT 17/M03 A30 RMK A01 T01741031  RH  025%=      5-min Rain = 0
KONS 231800Z 24014G21KT 17/M04 A30 RMK A01 T01731036  RH  024%=      5-min Rain = 0
KONS 231805Z 24012G18KT 17/M04 A30 RMK A01 T01741035  RH  024%=      5-min Rain = 0
KONS 231810Z 25014KT 18/M04 A30 RMK A01 T01781039  RH  023%=      5-min Rain = 0
KONS 231815Z 25012KT 18/M04 A30 RMK A01 T01761040  RH  023%=      5-min Rain = 0
KONS 231820Z 25013KT 18/M04 A2999 RMK A01 T01801043  RH  022%=      5-min Rain = 0
KONS 231825Z 26011G17KT 18/M04 A30 RMK A01 T01781039  RH  023%=      5-min Rain = 0
KONS 231830Z 26012G17KT 18/M04 A2999 RMK A01 T01801035  RH  023%=      5-min Rain = 0
KONS 231835Z 26013G20KT 18/M04 A2999 RMK A01 T01821039  RH  022%=      5-min Rain = 0
KONS 231840Z 24012G17KT 18/M04 A2999 RMK A01 T01831037  RH  022%=      5-min Rain = 0
KONS 231845Z 27010KT 19/M04 A2999 RMK A01 T01861037  RH  022%=      5-min Rain = 0
KONS 231850Z 27009KT 19/M04 A2999 RMK A01 T01851040  RH  022%=      5-min Rain = 0
KONS 231855Z 27012G18KT 19/M04 A2998 RMK A01 T01871037  RH  022%=      5-min Rain = 0
KONS 231900Z 25011G19KT 19/M04 A2998 RMK A01 T01871038  RH  022%=      5-min Rain = 0
KONS 231905Z 27015G21KT 19/M04 A2998 RMK A01 T01901039  RH  021%=      5-min Rain = 0
KONS 231910Z 25012G17KT 19/M04 A2998 RMK A01 T01901040  RH  021%=      5-min Rain = 0
KONS 231915Z 26012G20KT 19/M04 A2997 RMK A01 T01901038  RH  021%=      5-min Rain = 0
KONS 231920Z 26014KT 20/M04 A2997 RMK A01 T01971042  RH  020%=      5-min Rain = 0
KONS 231925Z 25016G23KT 20/M04 A2997 RMK A01 T01981044  RH  019%=      5-min Rain = 0
KONS 231930Z 26014G21KT 19/M05 A2997 RMK A01 T01941048  RH  019%=      5-min Rain = 0
KONS 231935Z 26012G19KT 20/M04 A2997 RMK A01 T01961043  RH  020%=      5-min Rain = 0
KONS 231940Z 24012KT 20/M04 A2997 RMK A01 T01991042  RH  020%=      5-min Rain = 0
KONS 231945Z 24016G23KT 20/M05 A2996 RMK A01 T02031050  RH  018%=      5-min Rain = 0
KONS 231950Z 23016G21KT 20/M05 A2996 RMK A01 T02011049  RH  018%=      5-min Rain = 0
KONS 231955Z 24017KT 20/M05 A2996 RMK A01 T02011051  RH  018%=      5-min Rain = 0
KONS 232000Z 25015G21KT 20/M05 A2996 RMK A01 T02031050  RH  018%=      5-min Rain = 0
KONS 232005Z 26016G23KT 21/M06 A2996 RMK A01 T02071059  RH  016%=      5-min Rain = 0
KONS 232010Z 27015G20KT 21/M06 A2996 RMK A01 T02061055  RH  017%=      5-min Rain = 0
KONS 232015Z 26015KT 21/M06 A2996 RMK A01 T02091058  RH  016%=      5-min Rain = 0
KONS 232020Z 26017G25KT 21/M06 A2996 RMK A01 T02111058  RH  016%=      5-min Rain = 0
KONS 232025Z 25016G22KT 21/M06 A2995 RMK A01 T02091055  RH  017%=      5-min Rain = 0
KONS 232030Z 25015G23KT 21/M05 A2995 RMK A01 T02091051  RH  017%=      5-min Rain = 0
KONS 232035Z 26018G24KT 21/M06 A2995 RMK A01 T02131060  RH  016%=      5-min Rain = 0
KONS 232040Z 25020G25KT 21/M06 A2995 RMK A01 T02141064  RH  015%=      5-min Rain = 0
KONS 232045Z 25014G22KT 21/M06 A2994 RMK A01 T02131060  RH  016%=      5-min Rain = 0
KONS 232050Z 27020G26KT 21/M07 A2994 RMK A01 T02141066  RH  015%=      5-min Rain = 0
KONS 232055Z 26016G23KT 21/M06 A2994 RMK A01 T02131062  RH  015%=      5-min Rain = 0
KONS 232100Z 26020G27KT 21/M06 A2994 RMK A01 T02121056  RH  016%=      5-min Rain = 0
KONS 232105Z 24016G22KT 21/M05 A2994 RMK A01 T02131048  RH  017%=      5-min Rain = 0
KONS 232110Z 27018KT 21/M06 A2994 RMK A01 T02141059  RH  016%=      5-min Rain = 0
KONS 232115Z 27016G25KT 21/M06 A2993 RMK A01 T02131058  RH  016%=      5-min Rain = 0
KONS 232120Z 25015G20KT 21/M05 A2993 RMK A01 T02141053  RH  016%=      5-min Rain = 0
KONS 232125Z 24014KT 21/M05 A2993 RMK A01 T02131047  RH  017%=      5-min Rain = 0
KONS 232130Z 26015G21KT 21/M05 A2993 RMK A01 T02131053  RH  016%=      5-min Rain = 0
KONS 232135Z 26016G23KT 21/M06 A2993 RMK A01 T02131058  RH  016%=      5-min Rain = 0
KONS 232140Z 27016G21KT 21/M06 A2993 RMK A01 T02131063  RH  015%=      5-min Rain = 0
KONS 232145Z 27018G24KT 22/M06 A2993 RMK A01 T02151059  RH  015%=      5-min Rain = 0
KONS 232150Z 26019KT 22/M06 A2993 RMK A01 T02171056  RH  016%=      5-min Rain = 0
KONS 232155Z 25017G23KT 21/M05 A2992 RMK A01 T02141053  RH  016%=      5-min Rain = 0
KONS 232200Z 26016KT 22/M06 A2992 RMK A01 T02151055  RH  016%=      5-min Rain = 0
KONS 232205Z 25015KT 22/M05 A2992 RMK A01 T02161054  RH  016%=      5-min Rain = 0
KONS 232210Z 26016G23KT 22/M05 A2992 RMK A01 T02191053  RH  016%=      5-min Rain = 0
KONS 232215Z 26017G22KT 22/M06 A2992 RMK A01 T02201056  RH  015%=      5-min Rain = 0
KONS 232220Z 25017G22KT 22/M06 A2992 RMK A01 T02201058  RH  015%=      5-min Rain = 0
KONS 232225Z 25017G22KT 22/M06 A2992 RMK A01 T02191059  RH  015%=      5-min Rain = 0
KONS 232230Z 25016G22KT 22/M06 A2992 RMK A01 T02161062  RH  015%=      5-min Rain = 0
KONS 232235Z 24018G23KT 22/M06 A2992 RMK A01 T02151057  RH  016%=      5-min Rain = 0
KONS 232240Z 24018G25KT 21/M06 A2992 RMK A01 T02131056  RH  016%=      5-min Rain = 0
KONS 232245Z 23016G21KT 21/M05 A2992 RMK A01 T02131049  RH  017%=      5-min Rain = 0
KONS 232250Z 23017KT 21/M05 A2991 RMK A01 T02141049  RH  017%=      5-min Rain = 0
KONS 232255Z 24016KT 22/M05 A2992 RMK A01 T02151050  RH  017%=      5-min Rain = 0
KONS 232300Z 24017G22KT 22/M05 A2992 RMK A01 T02151050  RH  017%=      5-min Rain = 0
KONS 232305Z 23017G23KT 21/M05 A2992 RMK A01 T02111051  RH  017%=      5-min Rain = 0
KONS 232310Z 23019G25KT 21/M05 A2992 RMK A01 T02081052  RH  017%=      5-min Rain = 0
KONS 232315Z 23017G22KT 21/M06 A2992 RMK A01 T02061055  RH  017%=      5-min Rain = 0
KONS 232320Z 24014KT 21/M05 A2992 RMK A01 T02071051  RH  017%=      5-min Rain = 0
KONS 232325Z 25016KT 21/M05 A2992 RMK A01 T02091054  RH  017%=      5-min Rain = 0
KONS 232330Z 24017KT 21/M05 A2992 RMK A01 T02061051  RH  018%=      5-min Rain = 0
KONS 232335Z 24015KT 20/M05 A2992 RMK A01 T02031051  RH  018%=      5-min Rain = 0
KONS 232340Z 24012KT 20/M05 A2992 RMK A01 T02011050  RH  018%=      5-min Rain = 0
KONS 232345Z 24011KT 20/M04 A2992 RMK A01 T01981043  RH  019%=      5-min Rain = 0
KONS 232350Z 24013KT 20/M05 A2992 RMK A01 T01971052  RH  018%=      5-min Rain = 0
KONS 232355Z 24013KT 19/M05 A2992 RMK A01 T01941048  RH  019%=      5-min Rain = 0
KONS 240000Z 23014KT 19/M05 A2992 RMK A01 T01911051  RH  019%=      5-min Rain = 0
KONS 240005Z 22013KT 19/M06 A2992 RMK A01 T01911057  RH  018%=      5-min Rain = 0
KONS 240010Z 22012KT 19/M06 A2992 RMK A01 T01901057  RH  019%=      5-min Rain = 0
KONS 240015Z 22011KT 19/M05 A2992 RMK A01 T01891053  RH  019%=      5-min Rain = 0
KONS 240020Z 22012KT 19/M05 A2992 RMK A01 T01881054  RH  019%=      5-min Rain = 0
KONS 240025Z 22011KT 19/M05 A2992 RMK A01 T01851050  RH  020%=      5-min Rain = 0
KONS 240030Z 21010KT 18/M05 A2992 RMK A01 T01801045  RH  022%=      5-min Rain = 0
KONS 240035Z 21011KT 18/M05 A2993 RMK A01 T01801045  RH  021%=      5-min Rain = 0
KONS 240040Z 20011KT 18/M04 A2993 RMK A01 T01811043  RH  022%=      5-min Rain = 0
KONS 240045Z 21011KT 18/M04 A2993 RMK A01 T01791038  RH  023%=      5-min Rain = 0
KONS 240050Z 21011KT 18/M04 A2993 RMK A01 T01761038  RH  023%=      5-min Rain = 0
KONS 240055Z 21011KT 18/M04 A2993 RMK A01 T01751040  RH  023%=      5-min Rain = 0
KONS 240100Z 20010KT 17/M04 A2993 RMK A01 T01711038  RH  024%=      5-min Rain = 0
KONS 240105Z 20010KT 16/M04 A2993 RMK A01 T01641035  RH  026%=      5-min Rain = 0
KONS 240110Z 21009KT 16/M03 A2994 RMK A01 T01571034  RH  027%=      5-min Rain = 0
KONS 240115Z 21009KT 15/M04 A2994 RMK A01 T01511035  RH  028%=      5-min Rain = 0
KONS 240120Z 21008KT 15/M04 A2994 RMK A01 T01471036  RH  028%=      5-min Rain = 0
KONS 240125Z 21008KT 14/M04 A2995 RMK A01 T01421037  RH  029%=      5-min Rain = 0
KONS 240130Z 21009KT 14/M04 A2995 RMK A01 T01371036  RH  030%=      5-min Rain = 0
KONS 240135Z 21010KT 13/M04 A2995 RMK A01 T01331036  RH  031%=      5-min Rain = 0
KONS 240140Z 20011KT 13/M04 A2996 RMK A01 T01311036  RH  031%=      5-min Rain = 0
KONS 240145Z 20011KT 13/M04 A2996 RMK A01 T01271035  RH  033%=      5-min Rain = 0
KONS 240150Z 20011KT 12/M04 A2996 RMK A01 T01231035  RH  033%=      5-min Rain = 0
KONS 240155Z 20011KT 12/M04 A2996 RMK A01 T01231037  RH  033%=      5-min Rain = 0
KONS 240200Z 20011KT 12/M04 A2997 RMK A01 T01221038  RH  033%=      5-min Rain = 0
KONS 240205Z 20010KT 12/M04 A2997 RMK A01 T01191038  RH  034%=      5-min Rain = 0
KONS 240210Z 20010KT 11/M04 A2997 RMK A01 T01141035  RH  035%=      5-min Rain = 0
KONS 240215Z 20010KT 11/M04 A2997 RMK A01 T01101035  RH  036%=      5-min Rain = 0
KONS 240220Z 20011KT 11/M04 A2997 RMK A01 T01061036  RH  037%=      5-min Rain = 0
KONS 240225Z 20011KT 10/M04 A2997 RMK A01 T01031035  RH  038%=      5-min Rain = 0
KONS 240230Z 20011KT 10/M04 A2997 RMK A01 T01021035  RH  039%=      5-min Rain = 0
KONS 240235Z 20012KT 10/M03 A2998 RMK A01 T01021034  RH  039%=      5-min Rain = 0
KONS 240240Z 19010KT 10/M03 A2998 RMK A01 T01011034  RH  039%=      5-min Rain = 0
KONS 240245Z 19010KT 10/M03 A2998 RMK A01 T00971031  RH  041%=      5-min Rain = 0
KONS 240250Z 19010KT 09/M03 A2998 RMK A01 T00941030  RH  042%=      5-min Rain = 0
KONS 240255Z 19010KT 09/M03 A2998 RMK A01 T00911030  RH  043%=      5-min Rain = 0
KONS 240300Z 19010KT 09/M03 A2998 RMK A01 T00881031  RH  044%=      5-min Rain = 0
KONS 240305Z 19010KT 09/M03 A2998 RMK A01 T00871030  RH  044%=      5-min Rain = 0
KONS 240310Z 19009KT 09/M03 A2998 RMK A01 T00871030  RH  044%=      5-min Rain = 0
KONS 240315Z 19008KT 08/M03 A2998 RMK A01 T00841029  RH  045%=      5-min Rain = 0
KONS 240320Z 20006KT 08/M03 A2999 RMK A01 T00801028  RH  047%=      5-min Rain = 0
KONS 240325Z 21006KT 08/M03 A2999 RMK A01 T00791032  RH  046%=      5-min Rain = 0
KONS 240330Z 21009KT 09/M04 A2999 RMK A01 T00851036  RH  043%=      5-min Rain = 0
KONS 240335Z 21009KT 09/M04 A2999 RMK A01 T00861035  RH  043%=      5-min Rain = 0
KONS 240340Z 21007KT 09/M03 A30 RMK A01 T00861034  RH  043%=      5-min Rain = 0
KONS 240345Z 21008KT 09/M04 A30 RMK A01 T00861035  RH  043%=      5-min Rain = 0
KONS 240350Z 21010KT 09/M04 A30 RMK A01 T00901038  RH  041%=      5-min Rain = 0
KONS 240355Z 21009KT 09/M04 A30 RMK A01 T00931038  RH  040%=      5-min Rain = 0
KONS 240400Z 21009KT 09/M04 A30 RMK A01 T00911038  RH  040%=      5-min Rain = 0
KONS 240405Z 21008KT 09/M04 A30 RMK A01 T00901038  RH  041%=      5-min Rain = 0
KONS 240410Z 21008KT 09/M04 A30 RMK A01 T00881037  RH  041%=      5-min Rain = 0
KONS 240415Z 22008KT 09/M04 A30 RMK A01 T00851036  RH  043%=      5-min Rain = 0
KONS 240420Z 24008KT 08/M04 A30 RMK A01 T00821035  RH  044%=      5-min Rain = 0
KONS 240425Z 23008KT 08/M03 A30 RMK A01 T00761032  RH  047%=      5-min Rain = 0
KONS 240430Z 24007KT 07/M03 A30 RMK A01 T00701029  RH  050%=      5-min Rain = 0
KONS 240435Z 27009KT 07/M03 A30 RMK A01 T00671028  RH  051%=      5-min Rain = 0
KONS 240440Z 26010KT 07/M03 A30 RMK A01 T00711032  RH  048%=      5-min Rain = 0
KONS 240445Z 26010KT 08/M03 A30 RMK A01 T00781033  RH  046%=      5-min Rain = 0
KONS 240450Z 26009KT 07/M03 A30 RMK A01 T00741031  RH  048%=      5-min Rain = 0
KONS 240455Z 26009KT 07/M03 A3001 RMK A01 T00691030  RH  050%=      5-min Rain = 0

Page generated in 0.0191 seconds.